sensor_id;sensor_type;location;lat;lon;timestamp;P1;durP1;ratioP1;P2;durP2;ratioP2
73150;SDS011;61354;50.758;6.106;2023-01-28T00:01:43;6.70;;;4.68;;
73150;SDS011;61354;50.758;6.106;2023-01-28T00:04:09;8.10;;;4.55;;
73150;SDS011;61354;50.758;6.106;2023-01-28T00:06:35;7.53;;;4.05;;
73150;SDS011;61354;50.758;6.106;2023-01-28T00:09:00;6.90;;;3.60;;
73150;SDS011;61354;50.758;6.106;2023-01-28T00:11:26;5.47;;;3.97;;
73150;SDS011;61354;50.758;6.106;2023-01-28T00:13:52;6.85;;;4.03;;
73150;SDS011;61354;50.758;6.106;2023-01-28T00:16:18;7.53;;;4.05;;
73150;SDS011;61354;50.758;6.106;2023-01-28T00:18:46;6.68;;;4.20;;
73150;SDS011;61354;50.758;6.106;2023-01-28T00:21:13;7.10;;;3.90;;
73150;SDS011;61354;50.758;6.106;2023-01-28T00:23:40;6.90;;;4.47;;
73150;SDS011;61354;50.758;6.106;2023-01-28T00:26:09;7.65;;;4.40;;
73150;SDS011;61354;50.758;6.106;2023-01-28T00:28:39;9.80;;;4.28;;
73150;SDS011;61354;50.758;6.106;2023-01-28T00:31:06;6.47;;;3.72;;
73150;SDS011;61354;50.758;6.106;2023-01-28T00:33:33;8.02;;;4.70;;
73150;SDS011;61354;50.758;6.106;2023-01-28T00:36:00;8.75;;;4.38;;
73150;SDS011;61354;50.758;6.106;2023-01-28T00:38:26;6.72;;;4.20;;
73150;SDS011;61354;50.758;6.106;2023-01-28T00:40:53;8.27;;;4.30;;
73150;SDS011;61354;50.758;6.106;2023-01-28T00:43:19;8.30;;;4.57;;
73150;SDS011;61354;50.758;6.106;2023-01-28T00:45:44;8.02;;;4.78;;
73150;SDS011;61354;50.758;6.106;2023-01-28T00:48:10;8.98;;;4.55;;
73150;SDS011;61354;50.758;6.106;2023-01-28T00:50:36;7.82;;;4.38;;
73150;SDS011;61354;50.758;6.106;2023-01-28T00:53:03;9.07;;;4.88;;
73150;SDS011;61354;50.758;6.106;2023-01-28T00:55:29;8.77;;;4.78;;
73150;SDS011;61354;50.758;6.106;2023-01-28T00:57:55;9.57;;;4.60;;
73150;SDS011;61354;50.758;6.106;2023-01-28T01:00:20;10.00;;;5.07;;
73150;SDS011;61354;50.758;6.106;2023-01-28T01:02:50;8.40;;;4.55;;
73150;SDS011;61354;50.758;6.106;2023-01-28T01:05:16;9.05;;;4.88;;
73150;SDS011;61354;50.758;6.106;2023-01-28T01:07:42;6.65;;;3.97;;
73150;SDS011;61354;50.758;6.106;2023-01-28T01:12:36;7.85;;;4.43;;
73150;SDS011;61354;50.758;6.106;2023-01-28T01:15:02;7.47;;;4.22;;
73150;SDS011;61354;50.758;6.106;2023-01-28T01:17:33;7.03;;;3.78;;
73150;SDS011;61354;50.758;6.106;2023-01-28T01:20:02;7.25;;;4.05;;
73150;SDS011;61354;50.758;6.106;2023-01-28T01:22:31;9.55;;;4.75;;
73150;SDS011;61354;50.758;6.106;2023-01-28T01:24:58;7.05;;;3.75;;
73150;SDS011;61354;50.758;6.106;2023-01-28T01:27:23;6.82;;;3.22;;
73150;SDS011;61354;50.758;6.106;2023-01-28T01:29:49;5.97;;;3.80;;
73150;SDS011;61354;50.758;6.106;2023-01-28T01:32:14;7.00;;;3.72;;
73150;SDS011;61354;50.758;6.106;2023-01-28T01:34:40;8.15;;;3.75;;
73150;SDS011;61354;50.758;6.106;2023-01-28T01:37:06;8.20;;;3.85;;
73150;SDS011;61354;50.758;6.106;2023-01-28T01:39:33;4.90;;;2.90;;
73150;SDS011;61354;50.758;6.106;2023-01-28T01:41:58;6.18;;;3.67;;
73150;SDS011;61354;50.758;6.106;2023-01-28T01:47:23;6.90;;;3.80;;
73150;SDS011;61354;50.758;6.106;2023-01-28T01:49:53;6.13;;;3.50;;
73150;SDS011;61354;50.758;6.106;2023-01-28T01:52:21;7.90;;;4.10;;
73150;SDS011;61354;50.758;6.106;2023-01-28T01:54:51;7.95;;;4.13;;
73150;SDS011;61354;50.758;6.106;2023-01-28T01:57:21;6.55;;;4.00;;
73150;SDS011;61354;50.758;6.106;2023-01-28T01:59:54;8.25;;;4.40;;
73150;SDS011;61354;50.758;6.106;2023-01-28T02:02:20;7.93;;;4.05;;
73150;SDS011;61354;50.758;6.106;2023-01-28T02:04:47;8.35;;;3.83;;
73150;SDS011;61354;50.758;6.106;2023-01-28T02:07:13;8.52;;;4.38;;
73150;SDS011;61354;50.758;6.106;2023-01-28T02:09:41;9.90;;;4.70;;
73150;SDS011;61354;50.758;6.106;2023-01-28T02:14:43;8.68;;;4.93;;
73150;SDS011;61354;50.758;6.106;2023-01-28T02:17:12;7.30;;;4.57;;
73150;SDS011;61354;50.758;6.106;2023-01-28T02:19:39;9.45;;;4.55;;
73150;SDS011;61354;50.758;6.106;2023-01-28T02:29:55;7.70;;;4.93;;
73150;SDS011;61354;50.758;6.106;2023-01-28T02:32:30;9.30;;;5.05;;
73150;SDS011;61354;50.758;6.106;2023-01-28T02:40:10;9.20;;;4.55;;
73150;SDS011;61354;50.758;6.106;2023-01-28T02:42:39;8.20;;;4.55;;
73150;SDS011;61354;50.758;6.106;2023-01-28T02:45:12;8.38;;;4.25;;
73150;SDS011;61354;50.758;6.106;2023-01-28T02:48:10;8.90;;;4.95;;
73150;SDS011;61354;50.758;6.106;2023-01-28T02:50:38;6.43;;;3.80;;
73150;SDS011;61354;50.758;6.106;2023-01-28T02:53:20;8.80;;;4.22;;
73150;SDS011;61354;50.758;6.106;2023-01-28T02:59:00;7.43;;;4.18;;
73150;SDS011;61354;50.758;6.106;2023-01-28T03:01:49;7.22;;;3.78;;
73150;SDS011;61354;50.758;6.106;2023-01-28T03:04:43;8.70;;;4.22;;
73150;SDS011;61354;50.758;6.106;2023-01-28T03:09:41;6.95;;;2.97;;
73150;SDS011;61354;50.758;6.106;2023-01-28T03:12:11;8.50;;;4.68;;
73150;SDS011;61354;50.758;6.106;2023-01-28T03:18:05;9.60;;;4.88;;
73150;SDS011;61354;50.758;6.106;2023-01-28T03:27:01;7.88;;;4.55;;
73150;SDS011;61354;50.758;6.106;2023-01-28T03:29:47;10.35;;;4.78;;
73150;SDS011;61354;50.758;6.106;2023-01-28T03:32:34;10.00;;;5.00;;
73150;SDS011;61354;50.758;6.106;2023-01-28T03:35:21;9.73;;;5.10;;
73150;SDS011;61354;50.758;6.106;2023-01-28T03:38:07;9.13;;;4.93;;
73150;SDS011;61354;50.758;6.106;2023-01-28T03:40:51;8.40;;;4.72;;
73150;SDS011;61354;50.758;6.106;2023-01-28T03:43:20;10.57;;;5.95;;
73150;SDS011;61354;50.758;6.106;2023-01-28T03:45:47;14.35;;;5.70;;
73150;SDS011;61354;50.758;6.106;2023-01-28T03:50:45;9.38;;;5.30;;
73150;SDS011;61354;50.758;6.106;2023-01-28T03:53:13;10.65;;;6.13;;
73150;SDS011;61354;50.758;6.106;2023-01-28T03:55:40;11.35;;;5.85;;
73150;SDS011;61354;50.758;6.106;2023-01-28T03:58:07;11.05;;;5.90;;
73150;SDS011;61354;50.758;6.106;2023-01-28T04:00:33;11.50;;;6.07;;
73150;SDS011;61354;50.758;6.106;2023-01-28T04:03:05;10.68;;;6.15;;
73150;SDS011;61354;50.758;6.106;2023-01-28T04:05:41;13.02;;;6.50;;
73150;SDS011;61354;50.758;6.106;2023-01-28T04:08:07;13.57;;;6.55;;
73150;SDS011;61354;50.758;6.106;2023-01-28T04:10:33;14.52;;;6.78;;
73150;SDS011;61354;50.758;6.106;2023-01-28T04:12:59;14.73;;;7.05;;
73150;SDS011;61354;50.758;6.106;2023-01-28T04:15:24;12.48;;;6.82;;
73150;SDS011;61354;50.758;6.106;2023-01-28T04:17:50;16.02;;;7.40;;
73150;SDS011;61354;50.758;6.106;2023-01-28T04:20:15;12.07;;;7.22;;
73150;SDS011;61354;50.758;6.106;2023-01-28T04:22:41;15.43;;;7.85;;
73150;SDS011;61354;50.758;6.106;2023-01-28T04:25:07;13.50;;;6.97;;
73150;SDS011;61354;50.758;6.106;2023-01-28T04:27:33;13.30;;;7.15;;
73150;SDS011;61354;50.758;6.106;2023-01-28T04:29:59;14.50;;;7.60;;
73150;SDS011;61354;50.758;6.106;2023-01-28T04:32:24;16.40;;;7.80;;
73150;SDS011;61354;50.758;6.106;2023-01-28T04:34:51;15.85;;;7.50;;
73150;SDS011;61354;50.758;6.106;2023-01-28T04:37:16;13.10;;;7.15;;
73150;SDS011;61354;50.758;6.106;2023-01-28T04:39:42;13.98;;;7.03;;
73150;SDS011;61354;50.758;6.106;2023-01-28T04:42:07;13.73;;;7.18;;
73150;SDS011;61354;50.758;6.106;2023-01-28T04:44:33;15.25;;;7.20;;
73150;SDS011;61354;50.758;6.106;2023-01-28T04:46:59;14.98;;;7.80;;
73150;SDS011;61354;50.758;6.106;2023-01-28T04:49:24;13.32;;;7.50;;
73150;SDS011;61354;50.758;6.106;2023-01-28T04:51:49;14.52;;;7.95;;
73150;SDS011;61354;50.758;6.106;2023-01-28T04:54:15;14.95;;;7.93;;
73150;SDS011;61354;50.758;6.106;2023-01-28T04:56:41;14.65;;;7.70;;
73150;SDS011;61354;50.758;6.106;2023-01-28T04:59:07;14.93;;;8.02;;
73150;SDS011;61354;50.758;6.106;2023-01-28T05:01:32;17.48;;;8.93;;
73150;SDS011;61354;50.758;6.106;2023-01-28T05:03:58;15.23;;;8.35;;
73150;SDS011;61354;50.758;6.106;2023-01-28T05:06:29;16.20;;;8.85;;
73150;SDS011;61354;50.758;6.106;2023-01-28T05:08:56;17.85;;;8.90;;
73150;SDS011;61354;50.758;6.106;2023-01-28T05:11:22;16.13;;;8.38;;
73150;SDS011;61354;50.758;6.106;2023-01-28T05:13:48;16.70;;;8.43;;
73150;SDS011;61354;50.758;6.106;2023-01-28T05:16:14;16.17;;;9.00;;
73150;SDS011;61354;50.758;6.106;2023-01-28T05:18:39;16.63;;;9.50;;
73150;SDS011;61354;50.758;6.106;2023-01-28T05:21:05;18.30;;;10.07;;
73150;SDS011;61354;50.758;6.106;2023-01-28T05:23:30;19.35;;;9.98;;
73150;SDS011;61354;50.758;6.106;2023-01-28T05:25:56;18.73;;;8.73;;
73150;SDS011;61354;50.758;6.106;2023-01-28T05:28:21;18.75;;;9.43;;
73150;SDS011;61354;50.758;6.106;2023-01-28T05:30:47;15.57;;;8.50;;
73150;SDS011;61354;50.758;6.106;2023-01-28T05:33:12;15.27;;;8.60;;
73150;SDS011;61354;50.758;6.106;2023-01-28T05:35:38;17.58;;;9.38;;
73150;SDS011;61354;50.758;6.106;2023-01-28T05:38:04;19.60;;;9.77;;
73150;SDS011;61354;50.758;6.106;2023-01-28T05:40:29;16.33;;;8.80;;
73150;SDS011;61354;50.758;6.106;2023-01-28T05:42:55;17.88;;;9.35;;
73150;SDS011;61354;50.758;6.106;2023-01-28T05:45:21;19.02;;;9.32;;
73150;SDS011;61354;50.758;6.106;2023-01-28T05:47:46;19.15;;;9.27;;
73150;SDS011;61354;50.758;6.106;2023-01-28T05:50:12;18.80;;;9.93;;
73150;SDS011;61354;50.758;6.106;2023-01-28T05:52:39;17.70;;;8.98;;
73150;SDS011;61354;50.758;6.106;2023-01-28T05:55:04;17.10;;;8.80;;
73150;SDS011;61354;50.758;6.106;2023-01-28T05:57:30;18.02;;;9.27;;
73150;SDS011;61354;50.758;6.106;2023-01-28T05:59:56;17.88;;;9.70;;
73150;SDS011;61354;50.758;6.106;2023-01-28T06:02:21;17.77;;;9.45;;
73150;SDS011;61354;50.758;6.106;2023-01-28T06:04:47;17.63;;;9.52;;
73150;SDS011;61354;50.758;6.106;2023-01-28T06:07:12;16.00;;;8.35;;
73150;SDS011;61354;50.758;6.106;2023-01-28T06:09:39;16.73;;;8.93;;
73150;SDS011;61354;50.758;6.106;2023-01-28T06:12:05;14.10;;;8.18;;
73150;SDS011;61354;50.758;6.106;2023-01-28T06:14:31;14.57;;;8.45;;
73150;SDS011;61354;50.758;6.106;2023-01-28T06:16:56;16.88;;;8.13;;
73150;SDS011;61354;50.758;6.106;2023-01-28T06:19:22;14.98;;;7.85;;
73150;SDS011;61354;50.758;6.106;2023-01-28T06:21:47;15.10;;;8.38;;
73150;SDS011;61354;50.758;6.106;2023-01-28T06:24:13;14.88;;;8.30;;
73150;SDS011;61354;50.758;6.106;2023-01-28T06:26:38;16.02;;;8.63;;
73150;SDS011;61354;50.758;6.106;2023-01-28T06:29:04;14.65;;;8.68;;
73150;SDS011;61354;50.758;6.106;2023-01-28T06:31:29;16.63;;;8.90;;
73150;SDS011;61354;50.758;6.106;2023-01-28T06:33:55;15.48;;;8.48;;
73150;SDS011;61354;50.758;6.106;2023-01-28T06:36:20;17.13;;;9.13;;
73150;SDS011;61354;50.758;6.106;2023-01-28T06:38:46;14.95;;;8.52;;
73150;SDS011;61354;50.758;6.106;2023-01-28T06:41:12;15.93;;;8.18;;
73150;SDS011;61354;50.758;6.106;2023-01-28T06:43:37;14.85;;;8.60;;
73150;SDS011;61354;50.758;6.106;2023-01-28T06:46:03;16.20;;;8.82;;
73150;SDS011;61354;50.758;6.106;2023-01-28T06:48:28;19.83;;;9.18;;
73150;SDS011;61354;50.758;6.106;2023-01-28T06:50:54;14.68;;;8.23;;
73150;SDS011;61354;50.758;6.106;2023-01-28T06:53:20;15.30;;;7.43;;
73150;SDS011;61354;50.758;6.106;2023-01-28T06:55:46;14.73;;;8.05;;
73150;SDS011;61354;50.758;6.106;2023-01-28T06:58:11;16.65;;;8.38;;
73150;SDS011;61354;50.758;6.106;2023-01-28T07:00:37;16.45;;;8.45;;
73150;SDS011;61354;50.758;6.106;2023-01-28T07:03:03;13.27;;;7.82;;
73150;SDS011;61354;50.758;6.106;2023-01-28T07:05:29;15.02;;;8.18;;
73150;SDS011;61354;50.758;6.106;2023-01-28T07:07:55;15.98;;;8.85;;
73150;SDS011;61354;50.758;6.106;2023-01-28T07:10:20;15.27;;;8.43;;
73150;SDS011;61354;50.758;6.106;2023-01-28T07:12:46;15.00;;;8.10;;
73150;SDS011;61354;50.758;6.106;2023-01-28T07:15:11;14.93;;;7.25;;
73150;SDS011;61354;50.758;6.106;2023-01-28T07:17:42;14.32;;;8.00;;
73150;SDS011;61354;50.758;6.106;2023-01-28T07:20:09;14.50;;;8.13;;
73150;SDS011;61354;50.758;6.106;2023-01-28T07:22:37;16.20;;;8.70;;
73150;SDS011;61354;50.758;6.106;2023-01-28T07:25:05;17.55;;;9.07;;
73150;SDS011;61354;50.758;6.106;2023-01-28T07:27:31;16.13;;;8.23;;
73150;SDS011;61354;50.758;6.106;2023-01-28T07:29:56;15.65;;;8.18;;
73150;SDS011;61354;50.758;6.106;2023-01-28T07:32:22;19.27;;;8.75;;
73150;SDS011;61354;50.758;6.106;2023-01-28T07:34:47;13.82;;;8.60;;
73150;SDS011;61354;50.758;6.106;2023-01-28T07:37:13;13.05;;;7.82;;
73150;SDS011;61354;50.758;6.106;2023-01-28T07:39:39;15.43;;;8.27;;
73150;SDS011;61354;50.758;6.106;2023-01-28T07:42:04;15.13;;;8.55;;
73150;SDS011;61354;50.758;6.106;2023-01-28T07:44:31;13.82;;;8.80;;
73150;SDS011;61354;50.758;6.106;2023-01-28T07:46:56;16.70;;;8.73;;
73150;SDS011;61354;50.758;6.106;2023-01-28T07:49:22;14.07;;;7.95;;
73150;SDS011;61354;50.758;6.106;2023-01-28T07:51:47;12.95;;;7.15;;
73150;SDS011;61354;50.758;6.106;2023-01-28T07:54:15;17.83;;;7.78;;
73150;SDS011;61354;50.758;6.106;2023-01-28T07:56:41;12.18;;;6.65;;
73150;SDS011;61354;50.758;6.106;2023-01-28T07:59:07;12.25;;;6.32;;
73150;SDS011;61354;50.758;6.106;2023-01-28T08:01:32;12.57;;;5.45;;
73150;SDS011;61354;50.758;6.106;2023-01-28T08:03:58;13.30;;;6.55;;
73150;SDS011;61354;50.758;6.106;2023-01-28T08:06:23;14.40;;;7.18;;
73150;SDS011;61354;50.758;6.106;2023-01-28T08:08:49;13.73;;;7.00;;
73150;SDS011;61354;50.758;6.106;2023-01-28T08:11:14;11.75;;;5.65;;
73150;SDS011;61354;50.758;6.106;2023-01-28T08:13:40;10.30;;;5.50;;
73150;SDS011;61354;50.758;6.106;2023-01-28T08:16:06;12.10;;;6.72;;
73150;SDS011;61354;50.758;6.106;2023-01-28T08:18:31;12.73;;;6.32;;
73150;SDS011;61354;50.758;6.106;2023-01-28T08:20:57;10.73;;;5.78;;
73150;SDS011;61354;50.758;6.106;2023-01-28T08:23:24;14.73;;;6.93;;
73150;SDS011;61354;50.758;6.106;2023-01-28T08:25:56;13.30;;;6.40;;
73150;SDS011;61354;50.758;6.106;2023-01-28T08:28:23;11.02;;;5.93;;
73150;SDS011;61354;50.758;6.106;2023-01-28T08:30:49;10.77;;;6.15;;
73150;SDS011;61354;50.758;6.106;2023-01-28T08:33:15;10.48;;;5.95;;
73150;SDS011;61354;50.758;6.106;2023-01-28T08:35:41;13.75;;;6.28;;
73150;SDS011;61354;50.758;6.106;2023-01-28T08:38:07;12.63;;;6.70;;
73150;SDS011;61354;50.758;6.106;2023-01-28T08:40:34;11.73;;;6.22;;
73150;SDS011;61354;50.758;6.106;2023-01-28T08:43:01;10.05;;;6.00;;
73150;SDS011;61354;50.758;6.106;2023-01-28T08:45:27;10.80;;;6.18;;
73150;SDS011;61354;50.758;6.106;2023-01-28T08:52:48;12.20;;;6.72;;
73150;SDS011;61354;50.758;6.106;2023-01-28T08:55:18;12.88;;;6.50;;
73150;SDS011;61354;50.758;6.106;2023-01-28T08:57:44;13.65;;;5.97;;
73150;SDS011;61354;50.758;6.106;2023-01-28T09:00:10;11.15;;;6.05;;
73150;SDS011;61354;50.758;6.106;2023-01-28T09:02:36;9.60;;;5.90;;
73150;SDS011;61354;50.758;6.106;2023-01-28T09:05:02;15.15;;;6.32;;
73150;SDS011;61354;50.758;6.106;2023-01-28T09:07:29;10.02;;;6.38;;
73150;SDS011;61354;50.758;6.106;2023-01-28T09:09:55;9.82;;;5.93;;
73150;SDS011;61354;50.758;6.106;2023-01-28T09:12:20;9.57;;;5.78;;
73150;SDS011;61354;50.758;6.106;2023-01-28T09:14:46;11.27;;;6.05;;
73150;SDS011;61354;50.758;6.106;2023-01-28T09:17:12;9.32;;;6.28;;
73150;SDS011;61354;50.758;6.106;2023-01-28T09:19:37;10.70;;;6.25;;
73150;SDS011;61354;50.758;6.106;2023-01-28T09:22:03;10.80;;;6.25;;
73150;SDS011;61354;50.758;6.106;2023-01-28T09:24:29;12.73;;;6.95;;
73150;SDS011;61354;50.758;6.106;2023-01-28T09:26:55;11.70;;;7.07;;
73150;SDS011;61354;50.758;6.106;2023-01-28T09:29:21;11.70;;;6.82;;
73150;SDS011;61354;50.758;6.106;2023-01-28T09:31:46;14.10;;;8.45;;
73150;SDS011;61354;50.758;6.106;2023-01-28T09:34:12;12.00;;;7.18;;
73150;SDS011;61354;50.758;6.106;2023-01-28T09:36:37;14.43;;;8.40;;
73150;SDS011;61354;50.758;6.106;2023-01-28T09:39:03;14.23;;;8.05;;
73150;SDS011;61354;50.758;6.106;2023-01-28T09:41:40;11.75;;;7.57;;
73150;SDS011;61354;50.758;6.106;2023-01-28T09:47:15;15.23;;;7.00;;
73150;SDS011;61354;50.758;6.106;2023-01-28T09:49:57;11.77;;;6.78;;
73150;SDS011;61354;50.758;6.106;2023-01-28T09:52:25;12.32;;;7.22;;
73150;SDS011;61354;50.758;6.106;2023-01-28T09:54:55;11.75;;;7.03;;
73150;SDS011;61354;50.758;6.106;2023-01-28T09:57:40;13.95;;;7.68;;
73150;SDS011;61354;50.758;6.106;2023-01-28T10:00:12;13.98;;;7.55;;
73150;SDS011;61354;50.758;6.106;2023-01-28T10:07:53;14.82;;;7.65;;
73150;SDS011;61354;50.758;6.106;2023-01-28T10:10:31;12.65;;;6.95;;
73150;SDS011;61354;50.758;6.106;2023-01-28T10:18:33;15.85;;;8.18;;
73150;SDS011;61354;50.758;6.106;2023-01-28T10:21:17;18.40;;;9.60;;
73150;SDS011;61354;50.758;6.106;2023-01-28T10:27:14;15.35;;;7.85;;
73150;SDS011;61354;50.758;6.106;2023-01-28T10:29:41;14.20;;;6.85;;
73150;SDS011;61354;50.758;6.106;2023-01-28T10:32:28;14.38;;;7.00;;
73150;SDS011;61354;50.758;6.106;2023-01-28T10:35:01;14.15;;;8.18;;
73150;SDS011;61354;50.758;6.106;2023-01-28T10:37:28;15.05;;;7.53;;
73150;SDS011;61354;50.758;6.106;2023-01-28T10:39:58;14.38;;;7.10;;
73150;SDS011;61354;50.758;6.106;2023-01-28T10:42:28;15.60;;;8.75;;
73150;SDS011;61354;50.758;6.106;2023-01-28T10:45:04;17.10;;;8.45;;
73150;SDS011;61354;50.758;6.106;2023-01-28T10:48:01;14.52;;;8.05;;
73150;SDS011;61354;50.758;6.106;2023-01-28T10:50:28;16.65;;;8.60;;
73150;SDS011;61354;50.758;6.106;2023-01-28T10:55:21;14.77;;;7.78;;
73150;SDS011;61354;50.758;6.106;2023-01-28T10:57:51;13.82;;;7.20;;
73150;SDS011;61354;50.758;6.106;2023-01-28T11:02:50;13.98;;;8.32;;
73150;SDS011;61354;50.758;6.106;2023-01-28T11:05:16;17.55;;;9.10;;
73150;SDS011;61354;50.758;6.106;2023-01-28T11:07:46;15.23;;;8.63;;
73150;SDS011;61354;50.758;6.106;2023-01-28T11:10:21;15.35;;;8.18;;
73150;SDS011;61354;50.758;6.106;2023-01-28T11:12:56;12.55;;;7.75;;
73150;SDS011;61354;50.758;6.106;2023-01-28T11:17:54;17.85;;;8.35;;
73150;SDS011;61354;50.758;6.106;2023-01-28T11:20:23;13.18;;;7.75;;
73150;SDS011;61354;50.758;6.106;2023-01-28T11:22:51;14.15;;;7.57;;
73150;SDS011;61354;50.758;6.106;2023-01-28T11:25:26;13.63;;;7.47;;
73150;SDS011;61354;50.758;6.106;2023-01-28T11:27:55;14.70;;;8.80;;
73150;SDS011;61354;50.758;6.106;2023-01-28T11:30:23;15.10;;;7.50;;
73150;SDS011;61354;50.758;6.106;2023-01-28T11:32:56;15.93;;;8.88;;
73150;SDS011;61354;50.758;6.106;2023-01-28T11:35:37;13.43;;;7.35;;
73150;SDS011;61354;50.758;6.106;2023-01-28T11:38:10;15.60;;;8.90;;
73150;SDS011;61354;50.758;6.106;2023-01-28T11:40:49;15.88;;;8.80;;
73150;SDS011;61354;50.758;6.106;2023-01-28T11:43:20;15.15;;;8.43;;
73150;SDS011;61354;50.758;6.106;2023-01-28T11:45:51;14.13;;;8.10;;
73150;SDS011;61354;50.758;6.106;2023-01-28T11:51:39;18.20;;;9.05;;
73150;SDS011;61354;50.758;6.106;2023-01-28T11:54:33;16.33;;;8.77;;
73150;SDS011;61354;50.758;6.106;2023-01-28T11:59:44;16.38;;;9.25;;
73150;SDS011;61354;50.758;6.106;2023-01-28T12:05:15;19.05;;;8.30;;
73150;SDS011;61354;50.758;6.106;2023-01-28T12:10:52;16.02;;;8.18;;
73150;SDS011;61354;50.758;6.106;2023-01-28T12:24:05;21.55;;;9.32;;
73150;SDS011;61354;50.758;6.106;2023-01-28T12:29:10;21.75;;;9.70;;
73150;SDS011;61354;50.758;6.106;2023-01-28T12:37:20;19.40;;;9.90;;
73150;SDS011;61354;50.758;6.106;2023-01-28T12:40:00;21.70;;;9.63;;
73150;SDS011;61354;50.758;6.106;2023-01-28T12:43:29;17.65;;;9.15;;
73150;SDS011;61354;50.758;6.106;2023-01-28T12:45:39;16.70;;;8.70;;
73150;SDS011;61354;50.758;6.106;2023-01-28T12:48:25;19.67;;;9.18;;
73150;SDS011;61354;50.758;6.106;2023-01-28T12:51:02;18.55;;;9.60;;
73150;SDS011;61354;50.758;6.106;2023-01-28T12:56:22;21.92;;;9.38;;
73150;SDS011;61354;50.758;6.106;2023-01-28T13:01:23;22.63;;;9.97;;
73150;SDS011;61354;50.758;6.106;2023-01-28T13:06:51;17.10;;;8.52;;
73150;SDS011;61354;50.758;6.106;2023-01-28T13:09:23;20.83;;;9.10;;
73150;SDS011;61354;50.758;6.106;2023-01-28T13:11:52;21.25;;;9.90;;
73150;SDS011;61354;50.758;6.106;2023-01-28T13:14:22;20.58;;;9.13;;
73150;SDS011;61354;50.758;6.106;2023-01-28T13:16:52;18.83;;;8.85;;
73150;SDS011;61354;50.758;6.106;2023-01-28T13:21:44;16.80;;;8.65;;
73150;SDS011;61354;50.758;6.106;2023-01-28T13:29:46;17.95;;;9.35;;
73150;SDS011;61354;50.758;6.106;2023-01-28T13:31:56;19.38;;;8.80;;
73150;SDS011;61354;50.758;6.106;2023-01-28T13:34:40;20.60;;;9.27;;
73150;SDS011;61354;50.758;6.106;2023-01-28T13:39:44;20.38;;;9.07;;
73150;SDS011;61354;50.758;6.106;2023-01-28T13:42:23;18.65;;;8.38;;
73150;SDS011;61354;50.758;6.106;2023-01-28T13:48:18;18.50;;;8.98;;
73150;SDS011;61354;50.758;6.106;2023-01-28T13:50:47;18.42;;;8.82;;
73150;SDS011;61354;50.758;6.106;2023-01-28T13:53:23;18.52;;;9.50;;
73150;SDS011;61354;50.758;6.106;2023-01-28T13:55:50;18.10;;;9.32;;
73150;SDS011;61354;50.758;6.106;2023-01-28T14:15:31;19.13;;;9.70;;
73150;SDS011;61354;50.758;6.106;2023-01-28T14:18:28;18.88;;;9.13;;
73150;SDS011;61354;50.758;6.106;2023-01-28T14:21:00;21.77;;;9.70;;
73150;SDS011;61354;50.758;6.106;2023-01-28T14:23:29;20.77;;;10.13;;
73150;SDS011;61354;50.758;6.106;2023-01-28T14:31:37;19.27;;;8.85;;
73150;SDS011;61354;50.758;6.106;2023-01-28T14:37:12;21.42;;;9.75;;
73150;SDS011;61354;50.758;6.106;2023-01-28T14:39:43;22.17;;;9.95;;
73150;SDS011;61354;50.758;6.106;2023-01-28T14:42:17;20.10;;;9.80;;
73150;SDS011;61354;50.758;6.106;2023-01-28T14:44:46;17.60;;;9.35;;
73150;SDS011;61354;50.758;6.106;2023-01-28T14:47:29;17.77;;;9.27;;
73150;SDS011;61354;50.758;6.106;2023-01-28T14:50:28;17.33;;;8.77;;
73150;SDS011;61354;50.758;6.106;2023-01-28T14:59:40;20.02;;;10.18;;
73150;SDS011;61354;50.758;6.106;2023-01-28T15:01:55;22.02;;;8.68;;
73150;SDS011;61354;50.758;6.106;2023-01-28T15:04:23;21.38;;;9.90;;
73150;SDS011;61354;50.758;6.106;2023-01-28T15:06:49;20.48;;;9.32;;
73150;SDS011;61354;50.758;6.106;2023-01-28T15:09:15;19.98;;;9.27;;
73150;SDS011;61354;50.758;6.106;2023-01-28T15:11:41;19.77;;;9.55;;
73150;SDS011;61354;50.758;6.106;2023-01-28T15:14:15;23.40;;;10.32;;
73150;SDS011;61354;50.758;6.106;2023-01-28T15:16:53;18.45;;;9.38;;
73150;SDS011;61354;50.758;6.106;2023-01-28T15:19:24;19.92;;;10.00;;
73150;SDS011;61354;50.758;6.106;2023-01-28T15:21:57;19.10;;;10.20;;
73150;SDS011;61354;50.758;6.106;2023-01-28T15:24:24;19.40;;;10.07;;
73150;SDS011;61354;50.758;6.106;2023-01-28T15:26:50;21.63;;;10.30;;
73150;SDS011;61354;50.758;6.106;2023-01-28T15:29:35;20.10;;;10.20;;
73150;SDS011;61354;50.758;6.106;2023-01-28T15:32:02;20.48;;;9.90;;
73150;SDS011;61354;50.758;6.106;2023-01-28T15:34:29;23.35;;;10.77;;
73150;SDS011;61354;50.758;6.106;2023-01-28T15:36:56;24.98;;;11.02;;
73150;SDS011;61354;50.758;6.106;2023-01-28T15:39:25;24.00;;;10.75;;
73150;SDS011;61354;50.758;6.106;2023-01-28T15:41:53;22.92;;;11.35;;
73150;SDS011;61354;50.758;6.106;2023-01-28T15:44:30;28.77;;;13.55;;
73150;SDS011;61354;50.758;6.106;2023-01-28T15:46:59;28.10;;;12.23;;
73150;SDS011;61354;50.758;6.106;2023-01-28T15:49:27;31.23;;;12.85;;
73150;SDS011;61354;50.758;6.106;2023-01-28T15:51:57;24.20;;;12.10;;
73150;SDS011;61354;50.758;6.106;2023-01-28T15:54:23;25.92;;;12.20;;
73150;SDS011;61354;50.758;6.106;2023-01-28T15:56:49;24.05;;;10.43;;
73150;SDS011;61354;50.758;6.106;2023-01-28T15:59:16;21.20;;;10.02;;
73150;SDS011;61354;50.758;6.106;2023-01-28T16:04:37;23.63;;;10.13;;
73150;SDS011;61354;50.758;6.106;2023-01-28T16:07:03;28.45;;;13.20;;
73150;SDS011;61354;50.758;6.106;2023-01-28T16:09:30;26.33;;;11.43;;
73150;SDS011;61354;50.758;6.106;2023-01-28T16:17:06;25.23;;;11.50;;
73150;SDS011;61354;50.758;6.106;2023-01-28T16:22:02;22.25;;;10.65;;
73150;SDS011;61354;50.758;6.106;2023-01-28T16:24:30;21.02;;;11.20;;
73150;SDS011;61354;50.758;6.106;2023-01-28T16:29:31;22.65;;;10.48;;
73150;SDS011;61354;50.758;6.106;2023-01-28T16:31:58;20.98;;;10.40;;
73150;SDS011;61354;50.758;6.106;2023-01-28T16:34:24;27.45;;;12.80;;
73150;SDS011;61354;50.758;6.106;2023-01-28T16:36:52;24.38;;;12.43;;
73150;SDS011;61354;50.758;6.106;2023-01-28T16:39:20;23.70;;;11.32;;
73150;SDS011;61354;50.758;6.106;2023-01-28T16:41:45;25.00;;;12.18;;
73150;SDS011;61354;50.758;6.106;2023-01-28T16:44:12;23.90;;;11.63;;
73150;SDS011;61354;50.758;6.106;2023-01-28T16:46:39;22.80;;;9.90;;
73150;SDS011;61354;50.758;6.106;2023-01-28T16:49:04;21.50;;;10.35;;
73150;SDS011;61354;50.758;6.106;2023-01-28T16:51:30;21.85;;;10.20;;
73150;SDS011;61354;50.758;6.106;2023-01-28T16:53:56;21.05;;;10.30;;
73150;SDS011;61354;50.758;6.106;2023-01-28T16:56:23;18.73;;;10.68;;
73150;SDS011;61354;50.758;6.106;2023-01-28T16:58:51;20.83;;;9.68;;
73150;SDS011;61354;50.758;6.106;2023-01-28T17:01:17;23.45;;;10.63;;
73150;SDS011;61354;50.758;6.106;2023-01-28T17:03:43;23.35;;;10.23;;
73150;SDS011;61354;50.758;6.106;2023-01-28T17:06:10;21.75;;;10.43;;
73150;SDS011;61354;50.758;6.106;2023-01-28T17:08:41;22.85;;;10.38;;
73150;SDS011;61354;50.758;6.106;2023-01-28T17:11:06;19.23;;;9.60;;
73150;SDS011;61354;50.758;6.106;2023-01-28T17:13:32;21.25;;;9.82;;
73150;SDS011;61354;50.758;6.106;2023-01-28T17:16:01;19.05;;;8.93;;
73150;SDS011;61354;50.758;6.106;2023-01-28T17:18:27;20.80;;;9.95;;
73150;SDS011;61354;50.758;6.106;2023-01-28T17:20:53;20.30;;;9.25;;
73150;SDS011;61354;50.758;6.106;2023-01-28T17:23:18;20.60;;;9.50;;
73150;SDS011;61354;50.758;6.106;2023-01-28T17:25:48;20.95;;;9.98;;
73150;SDS011;61354;50.758;6.106;2023-01-28T17:28:14;26.90;;;11.32;;
73150;SDS011;61354;50.758;6.106;2023-01-28T17:30:40;20.42;;;9.98;;
73150;SDS011;61354;50.758;6.106;2023-01-28T17:33:06;20.10;;;9.27;;